Time;durP1;ratioP1;P1;durP2;ratioP2;P2;SDS_P1;SDS_P2;PMS_P1;PMS_P2;Temp;Humidity;BMP_temperature;BMP_pressure;BME280_temperature;BME280_humidity;BME280_pressure;Samples;Min_cycle;Max_cycle;Signal;HPM_P1;HPM_P2
2021/06/02 00:00:04;;;;;;;1999.90;999.90;;;17.30;99.90;;;;;;5079051;28;20418;-86
2021/06/02 00:02:30;;;;;;;1999.90;999.90;;;17.40;99.90;;;;;;5080173;28;20391;-86
2021/06/02 00:05:01;;;;;;;1999.90;999.90;;;17.40;99.90;;;;;;5123655;23;20491;-84
2021/06/02 00:07:26;;;;;;;1999.90;999.90;;;17.30;99.90;;;;;;5037850;28;20400;-83
2021/06/02 00:09:54;;;;;;;1999.90;999.90;;;17.00;99.90;;;;;;5038978;28;20954;-84
2021/06/02 00:12:20;;;;;;;1999.90;999.90;;;17.10;99.90;;;;;;5039103;28;20177;-84
2021/06/02 00:14:46;;;;;;;1999.90;999.90;;;17.10;99.90;;;;;;5038982;28;20397;-84
2021/06/02 00:17:13;;;;;;;1999.90;999.90;;;17.00;99.90;;;;;;5040500;28;20456;-84
2021/06/02 00:19:39;;;;;;;1999.90;999.90;;;17.00;99.90;;;;;;5039284;28;20487;-84
2021/06/02 00:22:07;;;;;;;1999.90;999.90;;;17.00;99.90;;;;;;5039609;28;20520;-84
2021/06/02 00:24:33;;;;;;;1999.90;999.90;;;17.00;99.90;;;;;;5040130;28;20161;-84
2021/06/02 00:27:02;;;;;;;1999.90;999.90;;;17.00;99.90;;;;;;5038613;28;20411;-84
2021/06/02 00:29:31;;;;;;;1999.90;999.90;;;17.10;99.90;;;;;;5038813;28;20801;-84
2021/06/02 00:31:58;;;;;;;1999.90;999.90;;;17.10;99.90;;;;;;5039619;28;20412;-84
2021/06/02 00:34:25;;;;;;;1999.90;999.90;;;17.20;99.90;;;;;;5039298;28;20432;-84
2021/06/02 00:36:51;;;;;;;1999.90;999.90;;;17.00;99.90;;;;;;5040163;28;20407;-84
2021/06/02 00:39:17;;;;;;;1999.90;999.90;;;16.90;99.90;;;;;;5038623;28;20435;-84
2021/06/02 00:41:46;;;;;;;1999.90;999.90;;;16.70;99.90;;;;;;5038200;28;20451;-85
2021/06/02 00:44:18;;;;;;;1999.90;999.90;;;16.60;99.90;;;;;;5038159;28;20427;-84
2021/06/02 00:46:45;;;;;;;1999.90;999.90;;;16.40;99.90;;;;;;5038597;28;20423;-84
2021/06/02 00:49:23;;;;;;;1999.90;999.90;;;16.30;99.90;;;;;;5037044;28;20458;-84
2021/06/02 00:51:54;;;;;;;1999.90;999.90;;;16.30;99.90;;;;;;5038407;28;20384;-84
2021/06/02 00:54:20;;;;;;;1999.90;999.90;;;16.30;99.90;;;;;;5036723;28;20418;-84
2021/06/02 00:57:04;;;;;;;1999.90;999.90;;;16.30;99.90;;;;;;5037915;28;20502;-84
2021/06/02 00:59:37;;;;;;;1999.90;999.90;;;16.20;99.90;;;;;;5038148;28;20918;-84
2021/06/02 01:02:03;;;;;;;1999.90;999.90;;;16.20;99.90;;;;;;5037665;28;20965;-85
2021/06/02 01:04:30;;;;;;;1999.90;999.90;;;16.10;99.90;;;;;;5037698;28;20425;-84
2021/06/02 01:06:56;;;;;;;1999.90;999.90;;;16.20;99.90;;;;;;5038051;28;20412;-84
2021/06/02 01:09:23;;;;;;;1999.90;999.90;;;16.00;99.90;;;;;;5036315;28;20438;-84
2021/06/02 01:11:51;;;;;;;1999.90;999.90;;;15.80;99.90;;;;;;5038628;28;20445;-84
2021/06/02 01:14:19;;;;;;;1999.90;999.90;;;15.70;99.90;;;;;;5037653;28;20407;-84
2021/06/02 01:16:46;;;;;;;1999.90;999.90;;;15.60;99.90;;;;;;5036106;28;20499;-84
2021/06/02 01:19:12;;;;;;;1999.90;999.90;;;15.60;99.90;;;;;;5036334;28;20438;-84
2021/06/02 01:21:51;;;;;;;1999.90;999.90;;;15.40;99.90;;;;;;5037650;28;20447;-84
2021/06/02 01:24:16;;;;;;;1999.90;999.90;;;15.40;99.90;;;;;;5037953;28;20383;-84
2021/06/02 01:26:42;;;;;;;1999.90;999.90;;;15.40;99.90;;;;;;5038275;28;20398;-84
2021/06/02 01:29:08;;;;;;;1999.90;999.90;;;15.40;99.90;;;;;;5038886;28;20543;-85
2021/06/02 01:31:43;;;;;;;1999.90;999.90;;;15.40;99.90;;;;;;5037079;28;20416;-84
2021/06/02 01:34:27;;;;;;;1999.90;999.90;;;15.40;99.90;;;;;;5037749;28;20257;-84
2021/06/02 01:37:31;;;;;;;1999.90;999.90;;;15.40;99.90;;;;;;5037831;28;20414;-84
2021/06/02 01:40:18;;;;;;;1999.90;999.90;;;15.40;99.90;;;;;;5036959;28;20453;-84
2021/06/02 01:42:58;;;;;;;1999.90;999.90;;;15.30;99.90;;;;;;5039586;28;20392;-84
2021/06/02 01:45:53;;;;;;;1999.90;999.90;;;15.10;99.90;;;;;;5037587;28;20408;-84
2021/06/02 01:48:28;;;;;;;1999.90;999.90;;;15.00;99.90;;;;;;5038598;28;20784;-84
2021/06/02 01:51:14;;;;;;;1999.90;999.90;;;14.90;99.90;;;;;;5038890;28;20390;-83
2021/06/02 01:54:09;;;;;;;1999.90;999.90;;;14.90;99.90;;;;;;5040058;28;20417;-84
2021/06/02 01:56:54;;;;;;;1999.90;999.90;;;14.80;99.90;;;;;;5042203;28;20385;-84
2021/06/02 01:59:47;;;;;;;1999.90;999.90;;;14.80;99.90;;;;;;5040238;28;20429;-84
2021/06/02 02:02:21;;;;;;;1999.90;999.90;;;14.80;99.90;;;;;;5044217;28;20401;-84
2021/06/02 02:05:04;;;;;;;1999.90;999.90;;;14.60;99.90;;;;;;5043345;28;20563;-84
2021/06/02 02:07:43;;;;;;;1999.90;999.90;;;14.50;99.90;;;;;;5042443;28;20395;-84
2021/06/02 02:10:31;;;;;;;1999.90;999.90;;;14.50;99.90;;;;;;5041162;28;20404;-84
2021/06/02 02:13:37;;;;;;;1999.90;999.90;;;14.50;99.90;;;;;;5043029;28;20492;-84
2021/06/02 02:16:29;;;;;;;1999.90;999.90;;;14.60;99.90;;;;;;5025699;28;20772;-84
2021/06/02 02:19:13;;;;;;;1999.90;999.90;;;14.60;99.90;;;;;;5043042;28;20513;-84
2021/06/02 02:21:56;;;;;;;1999.90;999.90;;;14.60;99.90;;;;;;5042284;28;20472;-84
2021/06/02 02:24:34;;;;;;;1999.90;999.90;;;14.50;99.90;;;;;;5042195;28;20400;-84
2021/06/02 02:27:26;;;;;;;1999.90;999.90;;;14.40;99.90;;;;;;5042408;28;20431;-84
2021/06/02 02:29:59;;;;;;;1999.90;999.90;;;14.40;99.90;;;;;;5041882;28;20442;-84
2021/06/02 02:32:55;;;;;;;1999.90;999.90;;;14.30;99.90;;;;;;5040598;28;20405;-84
2021/06/02 02:35:38;;;;;;;1999.90;999.90;;;14.20;99.90;;;;;;5041691;28;20385;-83
2021/06/02 02:38:13;;;;;;;1999.90;999.90;;;14.30;99.90;;;;;;5041227;28;20456;-85
2021/06/02 02:41:03;;;;;;;1999.90;999.90;;;14.30;99.90;;;;;;5041278;28;20525;-84
2021/06/02 02:43:59;;;;;;;1999.90;999.90;;;14.30;99.90;;;;;;5041105;28;20791;-84
2021/06/02 02:46:24;;;;;;;1999.90;999.90;;;14.20;99.90;;;;;;5039901;28;20413;-84
2021/06/02 02:49:20;;;;;;;1999.90;999.90;;;14.20;99.90;;;;;;5039696;28;20433;-84
2021/06/02 02:51:52;;;;;;;1999.90;999.90;;;14.20;99.90;;;;;;5040630;28;20539;-84
2021/06/02 02:54:38;;;;;;;1999.90;999.90;;;14.20;99.90;;;;;;5041396;28;20413;-84
2021/06/02 02:57:27;;;;;;;1999.90;999.90;;;14.30;99.90;;;;;;5040595;28;20400;-84
2021/06/02 03:00:04;;;;;;;1999.90;999.90;;;14.30;99.90;;;;;;5040873;28;20487;-84
2021/06/02 03:02:32;;;;;;;1999.90;999.90;;;14.30;99.90;;;;;;5040781;28;20391;-84
2021/06/02 03:05:01;;;;;;;1999.90;999.90;;;14.10;99.90;;;;;;5038006;28;20445;-84
2021/06/02 03:07:32;;;;;;;1999.90;999.90;;;14.10;99.90;;;;;;5040396;28;20401;-84
2021/06/02 03:10:10;;;;;;;1999.90;999.90;;;14.20;99.90;;;;;;5040651;28;20422;-84
2021/06/02 03:12:48;;;;;;;1999.90;999.90;;;14.20;99.90;;;;;;5040706;28;20397;-84
2021/06/02 03:15:16;;;;;;;1999.90;999.90;;;14.20;99.90;;;;;;5040989;28;20468;-84
2021/06/02 03:17:48;;;;;;;1999.90;999.90;;;14.10;99.90;;;;;;5039765;28;20393;-84
2021/06/02 03:20:25;;;;;;;1999.90;999.90;;;14.10;99.90;;;;;;5040169;28;20918;-84
2021/06/02 03:23:09;;;;;;;1999.90;999.90;;;14.00;99.90;;;;;;5040467;28;20387;-84
2021/06/02 03:25:52;;;;;;;1999.90;999.90;;;13.90;99.90;;;;;;5040587;28;20380;-84
2021/06/02 03:28:55;;;;;;;1999.90;999.90;;;14.00;99.90;;;;;;5040363;28;20420;-84
2021/06/02 03:31:49;;;;;;;1999.90;999.90;;;13.90;99.90;;;;;;5040333;28;20769;-84
2021/06/02 03:34:29;;;;;;;1999.90;999.90;;;13.90;99.90;;;;;;5037340;28;20479;-84
2021/06/02 03:37:08;;;;;;;1999.90;999.90;;;13.80;99.90;;;;;;5038834;28;20459;-84
2021/06/02 03:39:54;;;;;;;1999.90;999.90;;;13.80;99.90;;;;;;5039657;28;20439;-84
2021/06/02 03:42:46;;;;;;;1999.90;999.90;;;13.70;99.90;;;;;;5038910;28;20404;-84
2021/06/02 03:45:38;;;;;;;1999.90;999.90;;;13.70;99.90;;;;;;5040239;28;20393;-84
2021/06/02 03:48:16;;;;;;;1999.90;999.90;;;13.70;99.90;;;;;;5039457;28;20424;-84
2021/06/02 03:51:29;;;;;;;1999.90;999.90;;;13.70;99.90;;;;;;5040016;28;20464;-84
2021/06/02 03:54:11;;;;;;;1999.90;999.90;;;13.70;99.90;;;;;;5028381;28;20435;-84
2021/06/02 03:56:43;;;;;;;1999.90;999.90;;;13.70;99.90;;;;;;5040580;28;20809;-84
2021/06/02 03:59:18;;;;;;;1999.90;999.90;;;13.80;99.90;;;;;;5040172;28;20427;-84
2021/06/02 04:01:55;;;;;;;1999.90;999.90;;;13.80;99.90;;;;;;5040445;28;20386;-83
2021/06/02 04:04:24;;;;;;;1999.90;999.90;;;13.80;99.90;;;;;;5039983;28;20942;-84
2021/06/02 04:07:07;;;;;;;1999.90;999.90;;;13.90;99.90;;;;;;5038843;28;20442;-84
2021/06/02 04:09:58;;;;;;;1999.90;999.90;;;13.80;99.90;;;;;;5038848;28;20444;-84
2021/06/02 04:13:02;;;;;;;1999.90;999.90;;;13.80;99.90;;;;;;5041661;28;20435;-84
2021/06/02 04:15:30;;;;;;;1999.90;999.90;;;13.80;99.90;;;;;;5037942;28;20430;-84
2021/06/02 04:17:56;;;;;;;1999.90;999.90;;;14.00;99.90;;;;;;5039343;28;20930;-84
2021/06/02 04:20:22;;;;;;;1999.90;999.90;;;14.10;99.90;;;;;;5040863;28;20463;-83
2021/06/02 04:22:49;;;;;;;1999.90;999.90;;;14.10;99.90;;;;;;5041052;28;20455;-83
2021/06/02 04:25:16;;;;;;;1999.90;999.90;;;14.10;99.90;;;;;;5042546;28;20170;-82
2021/06/02 04:27:46;;;;;;;1999.90;999.90;;;14.10;99.90;;;;;;5038818;28;20409;-84
2021/06/02 04:30:14;;;;;;;1999.90;999.90;;;14.30;99.90;;;;;;5037806;28;20414;-84
2021/06/02 04:32:42;;;;;;;1999.90;999.90;;;14.30;99.90;;;;;;5037890;28;20435;-84
2021/06/02 04:35:12;;;;;;;1999.90;999.90;;;14.40;99.90;;;;;;5039331;28;20487;-84
2021/06/02 04:37:38;;;;;;;1999.90;999.90;;;14.40;99.90;;;;;;5039509;28;20391;-84
2021/06/02 04:40:06;;;;;;;1999.90;999.90;;;14.60;99.90;;;;;;5039717;28;20458;-84
2021/06/02 04:42:37;;;;;;;1999.90;999.90;;;14.80;99.90;;;;;;5039168;28;20406;-84
2021/06/02 04:45:08;;;;;;;1999.90;999.90;;;15.20;99.90;;;;;;5039341;28;20409;-84
2021/06/02 04:47:35;;;;;;;1999.90;999.90;;;15.40;99.90;;;;;;5039866;28;20409;-84
2021/06/02 04:50:14;;;;;;;1999.90;999.90;;;15.70;99.90;;;;;;5037360;28;20406;-84
2021/06/02 04:53:18;;;;;;;1999.90;999.90;;;16.00;99.90;;;;;;5038806;28;20389;-84
2021/06/02 04:56:24;;;;;;;1999.90;999.90;;;16.30;99.90;;;;;;5016326;28;20501;-84
2021/06/02 04:58:56;;;;;;;1999.90;999.90;;;16.60;99.90;;;;;;5038394;28;20419;-84
2021/06/02 05:01:46;;;;;;;1999.90;999.90;;;16.80;99.90;;;;;;5039212;28;20388;-84
2021/06/02 05:04:37;;;;;;;1999.90;999.90;;;16.90;99.90;;;;;;5039096;28;20419;-84
2021/06/02 05:07:29;;;;;;;1999.90;999.90;;;17.20;99.90;;;;;;5038635;28;20412;-84
2021/06/02 05:10:02;;;;;;;1999.90;999.90;;;17.40;99.90;;;;;;5038920;28;20477;-84
2021/06/02 05:13:02;;;;;;;1999.90;999.90;;;17.50;99.90;;;;;;5039541;28;20438;-84
2021/06/02 05:15:40;;;;;;;1999.90;999.90;;;17.60;99.90;;;;;;5037779;28;20487;-84
2021/06/02 05:18:31;;;;;;;1999.90;999.90;;;17.60;99.90;;;;;;5038556;28;20506;-84
2021/06/02 05:24:29;;;;;;;1999.90;999.90;;;17.60;99.90;;;;;;5038605;28;20534;-84
2021/06/02 05:27:26;;;;;;;1999.90;999.90;;;17.60;99.90;;;;;;5037377;28;20447;-84
2021/06/02 05:30:07;;;;;;;1999.90;999.90;;;17.50;99.90;;;;;;5042235;28;20836;-84
2021/06/02 05:32:35;;;;;;;1999.90;999.90;;;17.50;99.90;;;;;;5042195;28;20486;-84
2021/06/02 05:35:32;;;;;;;1999.90;999.90;;;17.50;99.90;;;;;;5041156;28;20404;-85
2021/06/02 05:38:00;;;;;;;1999.90;999.90;;;17.50;99.90;;;;;;5041795;28;20499;-85
2021/06/02 05:41:06;;;;;;;1999.90;999.90;;;17.30;99.90;;;;;;5040703;28;20424;-85
2021/06/02 05:44:04;;;;;;;1999.90;999.90;;;17.20;99.90;;;;;;5038179;28;20407;-84
2021/06/02 05:46:54;;;;;;;1999.90;999.90;;;17.30;99.90;;;;;;5039163;28;20864;-85
2021/06/02 05:49:53;;;;;;;1999.90;999.90;;;17.20;99.90;;;;;;5039011;28;20427;-85
2021/06/02 05:52:40;;;;;;;1999.90;999.90;;;17.30;99.90;;;;;;5038669;28;20442;-85
2021/06/02 05:55:24;;;;;;;1999.90;999.90;;;17.30;99.90;;;;;;5039186;28;20424;-84
2021/06/02 05:58:17;;;;;;;1999.90;999.90;;;17.30;99.90;;;;;;5038859;28;20389;-84
2021/06/02 06:01:12;;;;;;;1999.90;999.90;;;17.30;99.90;;;;;;5039446;28;20423;-84
2021/06/02 06:03:44;;;;;;;1999.90;999.90;;;17.30;99.90;;;;;;5037902;28;20439;-85
2021/06/02 06:06:22;;;;;;;1999.90;999.90;;;17.30;99.90;;;;;;5054648;22;21004;-86
2021/06/02 06:09:46;;;;;;;1999.90;999.90;;;17.30;99.90;;;;;;5040859;28;20473;-86
2021/06/02 06:12:46;;;;;;;1999.90;999.90;;;17.40;99.90;;;;;;4945408;29;20524;-86
2021/06/02 06:15:33;;;;;;;1999.90;999.90;;;17.40;99.90;;;;;;4945919;29;20458;-86
2021/06/02 06:18:16;;;;;;;1999.90;999.90;;;17.50;99.90;;;;;;5028964;28;20428;-86
2021/06/02 06:21:06;;;;;;;1999.90;999.90;;;17.50;99.90;;;;;;5023567;28;20408;-86
2021/06/02 06:23:51;;;;;;;1999.90;999.90;;;17.60;99.90;;;;;;5023007;28;20411;-86
2021/06/02 06:26:39;;;;;;;1999.90;999.90;;;17.60;99.90;;;;;;5022188;28;20408;-86
2021/06/02 06:29:22;;;;;;;1999.90;999.90;;;17.70;99.90;;;;;;5041291;28;21014;-86
2021/06/02 06:31:54;;;;;;;1999.90;999.90;;;17.80;99.90;;;;;;5023299;28;20455;-86
2021/06/02 06:34:30;;;;;;;1999.90;999.90;;;17.80;99.90;;;;;;5022954;28;20411;-86
2021/06/02 06:37:06;;;;;;;1999.90;999.90;;;17.80;99.90;;;;;;5041018;28;20388;-86
2021/06/02 06:39:55;;;;;;;1999.90;999.90;;;17.90;99.90;;;;;;5022565;28;20447;-86
2021/06/02 06:42:27;;;;;;;1999.90;999.90;;;18.00;99.90;;;;;;5024195;28;20832;-86
2021/06/02 06:45:16;;;;;;;1999.90;999.90;;;18.10;99.90;;;;;;5041658;28;20391;-85
2021/06/02 06:47:46;;;;;;;1999.90;999.90;;;18.20;99.90;;;;;;5025029;28;20404;-85
2021/06/02 06:50:13;;;;;;;1999.90;999.90;;;18.20;99.90;;;;;;5042012;28;20384;-85
2021/06/02 06:52:44;;;;;;;1999.90;999.90;;;18.30;99.90;;;;;;5006838;28;20409;-86
2021/06/02 06:55:11;;;;;;;1999.90;999.90;;;18.30;99.90;;;;;;5040751;28;20880;-85
2021/06/02 06:57:43;;;;;;;1999.90;999.90;;;18.40;99.90;;;;;;5023561;28;20415;-86
2021/06/02 07:00:10;;;;;;;1999.90;999.90;;;18.40;99.90;;;;;;5022243;28;20412;-86
2021/06/02 07:02:38;;;;;;;1999.90;999.90;;;18.50;99.90;;;;;;5023369;28;20415;-85
2021/06/02 07:05:07;;;;;;;1999.90;999.90;;;18.60;99.90;;;;;;5039836;28;20479;-86
2021/06/02 07:07:39;;;;;;;1999.90;999.90;;;18.60;99.90;;;;;;5041667;28;20477;-86
2021/06/02 07:10:10;;;;;;;1999.90;999.90;;;18.60;99.90;;;;;;5041645;28;20393;-86
2021/06/02 07:12:38;;;;;;;1999.90;999.90;;;18.80;99.90;;;;;;5040568;28;20415;-85
2021/06/02 07:15:12;;;;;;;1999.90;999.90;;;18.90;99.90;;;;;;5036000;28;20415;-86
2021/06/02 07:17:52;;;;;;;1999.90;999.90;;;19.00;99.90;;;;;;5017274;28;20420;-86
2021/06/02 07:20:21;;;;;;;1999.90;999.90;;;19.10;99.90;;;;;;5025125;28;20499;-81
2021/06/02 07:22:48;;;;;;;1999.90;999.90;;;19.10;99.90;;;;;;5025259;28;20923;-81
2021/06/02 07:25:19;;;;;;;1999.90;999.90;;;19.20;99.90;;;;;;5040925;28;20411;-81
2021/06/02 07:27:45;;;;;;;1999.90;999.90;;;19.20;98.80;;;;;;5039069;28;20490;-81
2021/06/02 07:30:13;;;;;;;1999.90;999.90;;;19.30;99.80;;;;;;5037016;28;20458;-81
2021/06/02 07:32:42;;;;;;;1999.90;999.90;;;19.40;99.90;;;;;;5038285;28;20400;-81
2021/06/02 07:35:09;;;;;;;1999.90;999.90;;;19.50;98.90;;;;;;5036784;28;20436;-81
2021/06/02 07:37:35;;;;;;;1999.90;999.90;;;19.50;98.90;;;;;;5021870;28;20512;-81
2021/06/02 07:40:03;;;;;;;1999.90;999.90;;;19.50;99.90;;;;;;5039574;28;20411;-81
2021/06/02 07:42:32;;;;;;;1999.90;999.90;;;19.60;99.20;;;;;;5038711;28;20774;-80
2021/06/02 07:44:58;;;;;;;1999.90;999.90;;;19.70;99.90;;;;;;5020684;28;20757;-80
2021/06/02 07:47:23;;;;;;;1999.90;999.90;;;19.70;99.90;;;;;;5039346;28;20803;-80
2021/06/02 07:49:49;;;;;;;1999.90;999.90;;;19.80;97.90;;;;;;5022290;28;20487;-81
2021/06/02 07:52:15;;;;;;;1999.90;999.90;;;19.80;98.60;;;;;;5039085;28;20560;-81
2021/06/02 07:54:44;;;;;;;1999.90;999.90;;;19.90;98.40;;;;;;5022601;28;20174;-81
2021/06/02 07:57:10;;;;;;;1999.90;999.90;;;20.00;98.90;;;;;;5022450;28;20171;-81
2021/06/02 07:59:36;;;;;;;1999.90;999.90;;;20.10;98.10;;;;;;5022768;28;20442;-82
2021/06/02 08:02:02;;;;;;;1999.90;999.90;;;20.20;98.20;;;;;;5039876;28;20169;-81
2021/06/02 08:04:45;;;;;;;1999.90;999.90;;;20.20;97.40;;;;;;5021790;28;20428;-81
2021/06/02 08:07:11;;;;;;;1999.90;999.90;;;20.30;97.10;;;;;;5039667;28;20424;-82
2021/06/02 08:09:45;;;;;;;1999.90;999.90;;;20.40;97.10;;;;;;5038823;28;20429;-82
2021/06/02 08:12:14;;;;;;;1999.90;999.90;;;20.50;96.70;;;;;;5021679;28;20448;-82
2021/06/02 08:14:43;;;;;;;1999.90;999.90;;;20.60;94.80;;;;;;5037383;28;20447;-82
2021/06/02 08:17:09;;;;;;;1999.90;999.90;;;20.60;95.90;;;;;;5020900;28;20409;-81
2021/06/02 08:19:34;;;;;;;1999.90;999.90;;;20.70;98.30;;;;;;5020138;28;20507;-81
2021/06/02 08:22:09;;;;;;;1999.90;999.90;;;20.70;96.10;;;;;;5019895;28;20890;-81
2021/06/02 08:24:38;;;;;;;1999.90;999.90;;;20.70;95.00;;;;;;5038553;28;20185;-81
2021/06/02 08:27:11;;;;;;;1999.90;999.90;;;20.80;93.60;;;;;;5021415;28;20485;-81
2021/06/02 08:29:38;;;;;;;1999.90;999.90;;;20.90;94.60;;;;;;5021740;28;20435;-81
2021/06/02 08:32:04;;;;;;;1999.90;999.90;;;21.00;91.50;;;;;;5040418;28;20457;-82
2021/06/02 08:34:33;;;;;;;1999.90;999.90;;;21.10;91.00;;;;;;5019916;28;20419;-81
2021/06/02 08:37:01;;;;;;;1999.90;999.90;;;21.20;87.50;;;;;;5020249;28;20908;-82
2021/06/02 08:39:26;;;;;;;1999.90;999.90;;;21.20;85.00;;;;;;5038170;28;20939;-81
2021/06/02 08:41:56;;;;;;;1999.90;999.90;;;21.30;89.40;;;;;;5020069;28;20408;-82
2021/06/02 08:44:22;;;;;;;1999.90;999.90;;;21.40;82.20;;;;;;5019997;28;20178;-81
2021/06/02 08:46:48;;;;;;;1999.90;999.90;;;21.50;78.90;;;;;;5019988;28;20409;-81
2021/06/02 08:49:15;;;;;;;1999.90;999.90;;;21.60;77.20;;;;;;5037459;28;20558;-81
2021/06/02 08:51:42;;;;;;;1999.90;999.90;;;21.60;75.30;;;;;;5037088;28;20443;-81
2021/06/02 08:54:08;;;;;;;1999.90;999.90;;;21.80;82.10;;;;;;5019290;28;20468;-81
2021/06/02 08:56:42;;;;;;;1999.90;999.90;;;21.90;80.20;;;;;;5037663;28;20428;-81
2021/06/02 08:59:09;;;;;;;1999.90;999.90;;;22.00;76.80;;;;;;5037656;28;20506;-81
2021/06/02 09:01:35;;;;;;;1999.90;999.90;;;22.10;74.40;;;;;;5037763;28;20414;-81
2021/06/02 09:04:08;;;;;;;1999.90;999.90;;;22.20;70.30;;;;;;5040718;28;20412;-80
2021/06/02 09:06:47;;;;;;;1999.90;999.90;;;22.30;68.10;;;;;;5041881;28;20397;-81
2021/06/02 09:09:15;;;;;;;1999.90;999.90;;;22.40;62.50;;;;;;5023656;28;20462;-80
2021/06/02 09:11:48;;;;;;;1999.90;999.90;;;22.50;54.10;;;;;;5038330;28;20447;-79
2021/06/02 09:14:38;;;;;;;1999.90;999.90;;;22.70;55.10;;;;;;5025017;28;20404;-81
2021/06/02 09:17:09;;;;;;;1999.90;999.90;;;22.80;43.50;;;;;;5026830;28;20503;-83
2021/06/02 09:20:07;;;;;;;1999.90;999.90;;;22.90;34.40;;;;;;5023723;28;20424;-82
2021/06/02 09:22:39;;;;;;;1999.90;999.90;;;23.00;26.60;;;;;;5041517;28;20390;-82
2021/06/02 09:25:08;;;;;;;1999.90;999.90;;;23.10;18.30;;;;;;5041668;28;20402;-83
2021/06/02 09:27:49;;;;;;;1999.90;999.90;;;23.20;15.60;;;;;;5023072;28;20454;-84
2021/06/02 09:30:20;;;;;;;1999.90;999.90;;;23.30;14.00;;;;;;5024399;28;20487;-81
2021/06/02 09:32:50;;;;;;;1999.90;999.90;;;23.40;12.60;;;;;;5045815;28;20384;-83
2021/06/02 09:35:16;;;;;;;1999.90;999.90;;;23.40;23.10;;;;;;5045135;28;20408;-82
2021/06/02 09:37:54;;;;;;;1999.90;999.90;;;23.30;25.60;;;;;;5024730;28;20408;-83
2021/06/02 09:40:27;;;;;;;1999.90;999.90;;;23.20;26.10;;;;;;5021396;28;20408;-85
2021/06/02 09:42:54;;;;;;;1999.90;999.90;;;23.30;14.70;;;;;;5020352;28;20499;-83
2021/06/02 09:46:09;;;;;;;1999.90;999.90;;;23.40;4.50;;;;;;5020061;28;20408;-84
2021/06/02 10:07:05;;;;;;;1999.90;999.90;;;24.50;1.00;;;;;;4822551;29;20443;-83
2021/06/02 10:09:12;;;;;;;1999.90;999.90;;;24.80;1.00;;;;;;4862302;29;20542;-84
2021/06/02 10:11:38;;;;;;;1999.90;999.90;;;24.80;1.00;;;;;;4861763;29;20486;-83
2021/06/02 10:14:14;;;;;;;1999.90;999.90;;;24.90;1.00;;;;;;4929854;29;20420;-84
2021/06/02 10:16:41;;;;;;;1999.90;999.90;;;25.10;1.00;;;;;;5000849;28;20419;-84
2021/06/02 10:19:09;;;;;;;1999.90;999.90;;;25.20;1.00;;;;;;5040552;28;20420;-84
2021/06/02 10:21:46;;;;;;;1999.90;999.90;;;25.30;1.00;;;;;;5021170;28;20418;-84
2021/06/02 10:24:12;;;;;;;1999.90;999.90;;;25.30;1.00;;;;;;5019890;28;20420;-84
2021/06/02 10:26:39;;;;;;;1999.90;999.90;;;25.40;1.00;;;;;;5021001;28;20500;-81
2021/06/02 10:29:06;;;;;;;1999.90;999.90;;;25.60;1.00;;;;;;5038091;28;20486;-84
2021/06/02 10:31:42;;;;;;;1999.90;999.90;;;25.60;1.00;;;;;;5040113;28;20452;-84
2021/06/02 10:34:16;;;;;;;1999.90;999.90;;;25.60;1.00;;;;;;5040101;28;20854;-84
2021/06/02 10:36:50;;;;;;;1999.90;999.90;;;25.80;1.00;;;;;;5021002;28;20410;-84
2021/06/02 10:39:18;;;;;;;1999.90;999.90;;;25.90;1.00;;;;;;5023054;28;20429;-83
2021/06/02 10:41:54;;;;;;;1999.90;999.90;;;26.00;1.00;;;;;;5039649;28;20419;-83
2021/06/02 10:44:31;;;;;;;1999.90;999.90;;;26.20;1.00;;;;;;5022965;28;20421;-83
2021/06/02 10:46:58;;;;;;;1999.90;999.90;;;26.30;1.00;;;;;;5022758;28;20441;-83
2021/06/02 10:49:27;;;;;;;1999.90;999.90;;;26.30;1.00;;;;;;5005506;28;20437;-84
2021/06/02 10:51:56;;;;;;;1999.90;999.90;;;26.40;1.00;;;;;;5039667;28;20454;-84
2021/06/02 10:54:47;;;;;;;1999.90;999.90;;;26.50;1.00;;;;;;5021874;28;20474;-83
2021/06/02 10:57:16;;;;;;;1999.90;999.90;;;26.60;1.00;;;;;;5040991;28;20388;-83
2021/06/02 10:59:44;;;;;;;1999.90;999.90;;;26.70;1.00;;;;;;5039060;28;20424;-84
2021/06/02 11:02:28;;;;;;;1999.90;999.90;;;26.70;1.00;;;;;;5021508;28;20502;-84
2021/06/02 11:05:04;;;;;;;1999.90;999.90;;;26.70;1.00;;;;;;5021558;28;20478;-83
2021/06/02 11:07:36;;;;;;;1999.90;999.90;;;26.80;1.00;;;;;;5038037;28;20453;-83
2021/06/02 11:10:14;;;;;;;1999.90;999.90;;;26.90;1.00;;;;;;5038525;28;20407;-83
2021/06/02 11:12:52;;;;;;;1999.90;999.90;;;26.80;1.00;;;;;;5021830;28;20482;-83
2021/06/02 11:15:30;;;;;;;1999.90;999.90;;;27.00;1.00;;;;;;5039485;28;20793;-83
2021/06/02 11:18:12;;;;;;;1999.90;999.90;;;27.00;1.00;;;;;;5038458;28;20829;-83
2021/06/02 11:21:13;;;;;;;1999.90;999.90;;;27.10;1.00;;;;;;5020732;28;20415;-83
2021/06/02 11:23:41;;;;;;;1999.90;999.90;;;27.20;1.00;;;;;;4967995;28;20445;-84
2021/06/02 11:26:29;;;;;;;1999.90;999.90;;;27.30;1.00;;;;;;5019582;28;20397;-84
2021/06/02 11:29:13;;;;;;;1999.90;999.90;;;27.40;1.00;;;;;;5038314;28;20447;-83
2021/06/02 11:31:42;;;;;;;1999.90;999.90;;;27.50;1.00;;;;;;5020465;28;20444;-82
2021/06/02 11:34:31;;;;;;;1999.90;999.90;;;27.50;1.00;;;;;;5021396;28;20404;-83
2021/06/02 11:37:08;;;;;;;1999.90;999.90;;;27.60;1.00;;;;;;5038172;28;20751;-83
2021/06/02 11:39:37;;;;;;;1999.90;999.90;;;27.60;1.00;;;;;;5037107;28;20790;-83
2021/06/02 11:42:08;;;;;;;1999.90;999.90;;;27.60;1.00;;;;;;5037587;28;20503;-83
2021/06/02 11:44:35;;;;;;;1999.90;999.90;;;27.60;1.00;;;;;;5020177;28;20412;-84
2021/06/02 11:47:04;;;;;;;1999.90;999.90;;;27.70;1.00;;;;;;5039445;28;20406;-83
2021/06/02 11:49:34;;;;;;;1999.90;999.90;;;27.80;1.00;;;;;;5020788;28;21022;-83
2021/06/02 11:52:12;;;;;;;1999.90;999.90;;;27.80;1.00;;;;;;5021861;28;20452;-83
2021/06/02 11:54:54;;;;;;;1999.90;999.90;;;27.70;1.00;;;;;;5021144;28;20412;-83
2021/06/02 11:57:22;;;;;;;1999.90;999.90;;;27.80;1.00;;;;;;5038892;28;20432;-83
2021/06/02 11:59:48;;;;;;;1999.90;999.90;;;27.60;1.00;;;;;;5020842;28;20451;-83
2021/06/02 12:02:14;;;;;;;1999.90;999.90;;;27.80;1.00;;;;;;5038871;28;20435;-83
2021/06/02 12:04:40;;;;;;;1999.90;999.90;;;28.10;1.00;;;;;;5125337;22;20224;-84
2021/06/02 12:07:25;;;;;;;1999.90;999.90;;;28.20;1.00;;;;;;5077952;28;20447;-83
2021/06/02 12:09:55;;;;;;;1999.90;999.90;;;28.30;1.00;;;;;;5075120;28;20195;-83
2021/06/02 12:12:22;;;;;;;1999.90;999.90;;;28.40;1.00;;;;;;5058966;28;20402;-83
2021/06/02 12:14:52;;;;;;;1999.90;999.90;;;28.60;1.00;;;;;;5079207;28;20402;-84
2021/06/02 12:17:18;;;;;;;1999.90;999.90;;;28.40;1.00;;;;;;5077967;28;20398;-83
2021/06/02 12:19:47;;;;;;;1999.90;999.90;;;28.50;1.00;;;;;;5077323;28;20492;-83
2021/06/02 12:22:14;;;;;;;1999.90;999.90;;;28.30;1.00;;;;;;5077476;28;20474;-82
2021/06/02 12:24:40;;;;;;;1999.90;999.90;;;28.40;1.00;;;;;;5076565;28;20897;-82
2021/06/02 12:27:14;;;;;;;1999.90;999.90;;;28.30;1.00;;;;;;5075354;28;20421;-78
2021/06/02 12:29:40;;;;;;;1999.90;999.90;;;28.40;1.00;;;;;;5074122;28;20429;-78
2021/06/02 12:32:05;;;;;;;1999.90;999.90;;;28.60;1.00;;;;;;5073960;28;20501;-79
2021/06/02 12:34:36;;;;;;;1999.90;999.90;;;28.90;1.00;;;;;;5076340;28;20163;-81
2021/06/02 12:37:07;;;;;;;1999.90;999.90;;;29.10;1.00;;;;;;5077681;28;20168;-79
2021/06/02 12:39:33;;;;;;;1999.90;999.90;;;29.40;1.00;;;;;;5079246;28;20425;-79
2021/06/02 12:42:01;;;;;;;1999.90;999.90;;;29.50;1.00;;;;;;5076365;28;20442;-79
2021/06/02 12:44:29;;;;;;;1999.90;999.90;;;29.50;1.00;;;;;;5078697;28;20402;-79
2021/06/02 12:47:05;;;;;;;1999.90;999.90;;;29.50;1.00;;;;;;5078362;28;20398;-79
2021/06/02 12:49:31;;;;;;;1999.90;999.90;;;29.50;1.00;;;;;;5078234;28;20413;-79
2021/06/02 12:51:58;;;;;;;1999.90;999.90;;;29.50;1.00;;;;;;5076427;28;20972;-79
2021/06/02 12:54:29;;;;;;;1999.90;999.90;;;29.50;1.00;;;;;;5076698;28;20804;-79
2021/06/02 12:56:55;;;;;;;1999.90;999.90;;;29.50;1.00;;;;;;5076427;28;20411;-79
2021/06/02 12:59:34;;;;;;;1999.90;999.90;;;29.60;1.00;;;;;;5076915;28;20426;-79
2021/06/02 13:02:06;;;;;;;1999.90;999.90;;;29.40;1.00;;;;;;5077570;28;20928;-79